Time;durP1;ratioP1;P1;durP2;ratioP2;P2;SDS_P1;SDS_P2;PMS_P1;PMS_P2;Temp;Humidity;BMP_temperature;BMP_pressure;BME280_temperature;BME280_humidity;BME280_pressure;Samples;Min_cycle;Max_cycle;Signal;HPM_P1;HPM_P2
2023/08/24 00:02:07;;;;;;;0.00;0.00;;;;;;;20.22;62.90;101934.63;5058832;28;20040;-86
2023/08/24 00:04:34;;;;;;;0.35;0.35;;;;;;;20.23;63.08;101918.41;5058128;28;20024;-85
2023/08/24 00:07:00;;;;;;;0.05;0.05;;;;;;;20.27;63.45;101909.25;5056579;28;20041;-85
2023/08/24 00:09:27;;;;;;;0.10;0.10;;;;;;;20.30;63.29;101897.47;5048677;28;20037;-84
2023/08/24 00:11:53;;;;;;;0.00;0.00;;;;;;;20.30;63.27;101892.97;5054075;28;20535;-84
2023/08/24 00:14:19;;;;;;;0.10;0.10;;;;;;;20.33;62.75;101900.91;5044313;28;20029;-83
2023/08/24 00:16:46;;;;;;;0.00;0.00;;;;;;;20.36;62.65;101903.47;5051840;28;20033;-83
2023/08/24 00:19:12;;;;;;;0.52;0.52;;;;;;;20.39;63.18;101890.81;5058138;28;20028;-82
2023/08/24 00:21:38;;;;;;;0.00;0.00;;;;;;;20.41;63.06;101886.22;5055949;28;20388;-84
2023/08/24 00:24:04;;;;;;;0.00;0.00;;;;;;;20.42;62.80;101880.78;5051087;28;20035;-83
2023/08/24 00:26:31;;;;;;;0.00;0.00;;;;;;;20.42;63.16;101880.78;5053526;28;20080;-82
2023/08/24 00:28:57;;;;;;;0.10;0.10;;;;;;;20.43;63.13;101878.97;5057188;28;20713;-82
2023/08/24 00:31:23;;;;;;;0.60;0.60;;;;;;;20.43;63.10;101881.66;5045056;28;20037;-83
2023/08/24 00:33:50;;;;;;;0.00;0.00;;;;;;;20.43;62.67;101893.28;5041843;28;20033;-82
2023/08/24 00:36:18;;;;;;;0.05;0.05;;;;;;;20.43;63.00;101887.91;5050875;28;20036;-82
2023/08/24 00:38:44;;;;;;;0.00;0.00;;;;;;;20.44;62.88;101888.81;5044930;28;20038;-82
2023/08/24 00:41:12;;;;;;;0.00;0.00;;;;;;;20.44;63.08;101888.81;5044473;28;20036;-82
2023/08/24 00:43:38;;;;;;;0.10;0.10;;;;;;;20.44;63.29;101888.81;5043437;28;20029;-83
2023/08/24 00:46:05;;;;;;;0.10;0.10;;;;;;;20.43;63.05;101882.53;5051132;28;20112;-82
2023/08/24 00:48:31;;;;;;;0.00;0.00;;;;;;;20.45;63.10;101874.38;5043890;28;20033;-86
2023/08/24 00:51:00;;;;;;;0.10;0.10;;;;;;;20.46;62.89;101874.34;5056739;28;20043;-86
2023/08/24 00:53:29;;;;;;;0.15;0.15;;;;;;;20.45;63.13;101887.84;5054888;28;20025;-84
2023/08/24 00:55:56;;;;;;;0.03;0.03;;;;;;;20.46;63.13;101887.78;5056274;28;20021;-86
2023/08/24 00:58:23;;;;;;;0.25;0.25;;;;;;;20.46;62.86;101894.97;5050816;28;20072;-86
2023/08/24 01:00:52;;;;;;;0.08;0.08;;;;;;;20.46;62.91;101886.91;5049686;28;20037;-85
2023/08/24 01:03:19;;;;;;;0.00;0.00;;;;;;;20.44;63.08;101888.81;5056880;28;20059;-84
2023/08/24 01:05:45;;;;;;;0.00;0.00;;;;;;;20.43;62.96;101881.66;5060803;28;20017;-87
2023/08/24 01:08:12;;;;;;;0.10;0.10;;;;;;;20.40;63.41;101873.72;5058101;28;20109;-84
2023/08/24 01:13:36;;;;;;;0.32;0.25;;;;;;;20.46;63.04;101881.50;5069384;28;20399;-84
2023/08/24 01:16:11;;;;;;;0.05;0.05;;;;;;;20.47;62.87;101889.53;5068643;28;20519;-84
2023/08/24 01:18:40;;;;;;;0.00;0.00;;;;;;;20.48;63.06;101896.66;5066140;28;20399;-83
2023/08/24 01:21:07;;;;;;;0.10;0.10;;;;;;;20.50;63.04;101893.91;5059112;28;20051;-84
2023/08/24 01:23:43;;;;;;;0.00;0.00;;;;;;;20.57;63.21;101886.41;5068141;28;20035;-84
2023/08/24 01:26:16;;;;;;;0.10;0.10;;;;;;;20.59;63.22;101880.03;5059411;28;20029;-84
2023/08/24 01:28:44;;;;;;;0.03;0.03;;;;;;;20.62;63.33;101871.81;5068380;28;20050;-85
2023/08/24 01:31:13;;;;;;;0.10;0.10;;;;;;;20.62;63.19;101868.22;5060272;28;20522;-84
2023/08/24 01:33:40;;;;;;;0.00;0.00;;;;;;;20.63;63.50;101862.78;5062320;28;20041;-84
2023/08/24 01:36:08;;;;;;;0.20;0.20;;;;;;;20.64;63.26;101867.22;5068701;28;20020;-86
2023/08/24 01:38:34;;;;;;;0.80;0.65;;;;;;;20.68;62.91;101866.13;5062185;28;20017;-86
2023/08/24 01:43:42;;;;;;;0.10;0.10;;;;;;;20.73;62.61;101875.84;5093548;27;20385;-82
2023/08/24 01:46:09;;;;;;;0.10;0.10;;;;;;;20.74;62.90;101893.75;5092254;28;20047;-83
2023/08/24 01:48:37;;;;;;;0.38;0.38;;;;;;;20.75;63.43;101882.03;5088855;28;20434;-84
2023/08/24 01:51:04;;;;;;;0.05;0.05;;;;;;;20.77;63.32;101872.06;5089973;28;20027;-83
2023/08/24 01:53:31;;;;;;;10.15;0.57;;;;;;;20.77;63.70;101866.69;5094306;28;20020;-83
2023/08/24 01:55:58;;;;;;;0.30;0.30;;;;;;;20.74;63.45;101865.00;5104394;28;20036;-82
2023/08/24 01:58:24;;;;;;;0.10;0.10;;;;;;;20.69;64.50;101862.47;5092260;28;20032;-82
2023/08/24 02:00:50;;;;;;;0.10;0.10;;;;;;;20.66;64.47;101853.66;5088478;28;20397;-82
2023/08/24 02:03:16;;;;;;;0.08;0.08;;;;;;;20.61;64.53;101836.84;5093804;28;20101;-80
2023/08/24 02:05:42;;;;;;;0.00;0.00;;;;;;;20.60;64.89;101836.00;5092168;28;20033;-82
2023/08/24 02:08:08;;;;;;;0.10;0.10;;;;;;;20.58;64.04;101839.72;5091811;28;20086;-78
2023/08/24 02:10:35;;;;;;;0.00;0.00;;;;;;;20.56;64.95;101834.41;5089244;28;20036;-79
2023/08/24 02:13:01;;;;;;;0.08;0.08;;;;;;;20.54;64.73;101820.13;5098555;28;20028;-79
2023/08/24 02:15:27;;;;;;;0.10;0.10;;;;;;;20.50;64.83;101807.75;5091058;28;20020;-80
2023/08/24 02:17:53;;;;;;;0.10;0.10;;;;;;;20.45;65.27;101796.31;5093971;28;20078;-81
2023/08/24 02:20:19;;;;;;;0.00;0.00;;;;;;;20.41;65.10;101792.03;5089409;28;20024;-80
2023/08/24 02:22:45;;;;;;;0.03;0.03;;;;;;;20.35;64.62;101783.28;5093128;28;20027;-80
2023/08/24 02:25:11;;;;;;;0.00;0.00;;;;;;;20.28;65.26;101771.06;5093234;28;20119;-80
2023/08/24 02:27:37;;;;;;;0.10;0.10;;;;;;;20.29;64.88;101767.44;5096488;28;20074;-80
2023/08/24 02:30:04;;;;;;;0.10;0.10;;;;;;;20.27;65.37;101758.53;5096203;28;20077;-80
2023/08/24 02:32:30;;;;;;;0.08;0.08;;;;;;;20.27;65.21;101749.63;5096326;28;20081;-80
2023/08/24 02:34:57;;;;;;;0.25;0.25;;;;;;;20.22;65.51;101759.72;5094577;28;20039;-80
2023/08/24 02:37:23;;;;;;;0.00;0.00;;;;;;;20.20;66.04;101770.56;5090027;28;20024;-80
2023/08/24 02:39:50;;;;;;;0.00;0.00;;;;;;;20.17;64.90;101773.38;5094177;28;20028;-80
2023/08/24 02:42:16;;;;;;;0.10;0.10;;;;;;;20.16;65.08;101775.22;5095842;28;20394;-80
2023/08/24 02:44:42;;;;;;;0.10;0.10;;;;;;;20.16;64.89;101766.25;5094354;28;20032;-80
2023/08/24 02:47:08;;;;;;;0.10;0.10;;;;;;;20.12;65.71;101765.50;5096121;28;20024;-80
2023/08/24 02:49:34;;;;;;;0.00;0.00;;;;;;;20.12;65.61;101764.66;5089744;28;20025;-81
2023/08/24 02:52:00;;;;;;;0.30;0.30;;;;;;;20.10;65.71;101766.53;5087508;28;20032;-79
2023/08/24 02:54:27;;;;;;;0.13;0.13;;;;;;;20.11;65.38;101774.53;5077990;28;20393;-82
2023/08/24 02:56:54;;;;;;;0.20;0.20;;;;;;;20.11;65.53;101774.53;5079351;28;20107;-81
2023/08/24 02:59:20;;;;;;;0.10;0.10;;;;;;;20.11;65.32;101762.91;5077819;28;20036;-81
2023/08/24 03:01:46;;;;;;;0.35;0.35;;;;;;;20.09;65.95;101759.38;5078242;28;20039;-80
2023/08/24 03:04:12;;;;;;;0.00;0.00;;;;;;;20.10;65.45;101764.72;5083948;28;20052;-81
2023/08/24 03:06:38;;;;;;;0.00;0.00;;;;;;;20.10;65.21;101756.66;5085792;28;20040;-78
2023/08/24 03:09:04;;;;;;;0.10;0.10;;;;;;;20.10;65.02;101759.34;5094996;28;20039;-81
2023/08/24 03:11:31;;;;;;;0.10;0.10;;;;;;;20.08;65.14;101749.59;5079902;28;20024;-81
2023/08/24 03:13:57;;;;;;;0.15;0.15;;;;;;;20.08;64.98;101747.75;5079481;28;20028;-81
2023/08/24 03:16:23;;;;;;;0.68;0.68;;;;;;;20.07;65.60;101739.78;5078238;28;20025;-81
2023/08/24 03:18:49;;;;;;;0.20;0.20;;;;;;;20.06;65.55;101735.34;5080007;28;20090;-81
2023/08/24 03:21:15;;;;;;;0.10;0.10;;;;;;;20.03;65.90;101729.13;5079283;28;20485;-81
2023/08/24 03:23:41;;;;;;;0.40;0.40;;;;;;;20.02;65.64;101737.28;5079774;28;20040;-80
2023/08/24 03:26:07;;;;;;;0.20;0.20;;;;;;;20.00;65.74;101745.44;5081917;28;20708;-81
2023/08/24 03:28:34;;;;;;;0.10;0.10;;;;;;;19.97;65.91;101739.31;5080831;28;20127;-82
2023/08/24 03:31:00;;;;;;;0.00;0.00;;;;;;;19.96;65.89;101722.31;5079168;28;20028;-80
2023/08/24 03:33:27;;;;;;;0.10;0.10;;;;;;;19.96;66.06;101722.31;5079843;28;20391;-80
2023/08/24 03:35:54;;;;;;;0.20;0.20;;;;;;;19.95;66.08;101708.91;5080257;28;20111;-82
2023/08/24 03:38:20;;;;;;;0.10;0.10;;;;;;;19.94;66.30;101716.13;5083484;28;20032;-81
2023/08/24 03:40:46;;;;;;;0.10;0.10;;;;;;;19.90;66.16;101719.91;5079556;28;20025;-80
2023/08/24 03:43:12;;;;;;;0.10;0.10;;;;;;;19.86;66.24;101720.97;5079330;28;20111;-80
2023/08/24 03:45:38;;;;;;;0.10;0.10;;;;;;;19.85;65.98;101720.09;5077742;28;20079;-82
2023/08/24 03:48:05;;;;;;;0.40;0.40;;;;;;;19.84;65.80;101721.03;5077626;28;20033;-82
2023/08/24 03:50:31;;;;;;;0.10;0.10;;;;;;;19.84;65.66;101720.19;5084320;28;20107;-81
2023/08/24 03:52:57;;;;;;;0.10;0.10;;;;;;;19.82;66.10;101720.19;5087476;28;20158;-82
2023/08/24 03:55:23;;;;;;;0.17;0.17;;;;;;;19.80;66.33;101726.59;5089413;28;20050;-80
2023/08/24 03:57:50;;;;;;;0.10;0.10;;;;;;;19.80;65.68;101729.28;5087954;28;20028;-82
2023/08/24 04:00:16;;;;;;;1.70;0.38;;;;;;;19.78;65.83;101733.88;5092314;28;20825;-84
2023/08/24 04:02:43;;;;;;;0.00;0.00;;;;;;;19.77;66.23;101727.59;5092171;28;20032;-82
2023/08/24 04:05:09;;;;;;;0.00;0.00;;;;;;;19.75;66.28;101726.81;5088372;28;20032;-84
2023/08/24 04:07:36;;;;;;;0.00;0.00;;;;;;;19.73;66.28;101731.38;5090141;28;20037;-84
2023/08/24 04:10:04;;;;;;;0.10;0.10;;;;;;;19.73;65.65;101731.38;5090539;28;20025;-83
2023/08/24 04:12:31;;;;;;;0.28;0.28;;;;;;;19.72;66.21;101735.88;5090473;28;20013;-82
2023/08/24 04:14:58;;;;;;;0.00;0.00;;;;;;;19.70;66.25;101737.78;5080269;28;20051;-83
2023/08/24 04:17:24;;;;;;;0.10;0.10;;;;;;;19.70;65.75;101732.38;5079852;28;20020;-83
2023/08/24 04:19:50;;;;;;;0.05;0.05;;;;;;;19.69;66.01;101737.84;5078210;28;20500;-81
2023/08/24 04:22:17;;;;;;;0.30;0.30;;;;;;;19.68;66.23;101738.78;5078030;28;20020;-82
2023/08/24 04:24:43;;;;;;;0.10;0.10;;;;;;;19.67;66.20;101735.19;5077876;28;20047;-83
2023/08/24 04:27:09;;;;;;;0.10;0.10;;;;;;;19.66;66.36;101730.75;5079813;28;20028;-83
2023/08/24 04:29:35;;;;;;;0.00;0.00;;;;;;;19.66;66.70;101736.13;5085309;28;20043;-82
2023/08/24 04:32:01;;;;;;;0.10;0.10;;;;;;;19.67;66.15;101737.88;5078094;28;20021;-83
2023/08/24 04:34:27;;;;;;;0.10;0.10;;;;;;;19.67;66.26;101737.88;5076491;28;20028;-83
2023/08/24 04:36:54;;;;;;;0.20;0.20;;;;;;;19.67;66.54;101737.03;5077655;28;20039;-83
2023/08/24 04:39:20;;;;;;;0.10;0.10;;;;;;;19.67;66.54;101750.47;5077911;28;20024;-83
2023/08/24 04:41:46;;;;;;;0.00;0.00;;;;;;;19.65;66.57;101746.97;5076005;28;20028;-80
2023/08/24 04:44:12;;;;;;;0.00;0.00;;;;;;;19.63;66.53;101740.81;5073942;28;20033;-81
2023/08/24 04:46:38;;;;;;;0.10;0.10;;;;;;;19.66;66.70;101741.50;5076493;28;20398;-83
2023/08/24 04:49:04;;;;;;;0.10;0.10;;;;;;;19.68;66.58;101734.25;5072974;28;20074;-83
2023/08/24 04:51:30;;;;;;;0.03;0.03;;;;;;;19.69;66.67;101729.78;5071698;28;20037;-81
2023/08/24 04:53:57;;;;;;;0.10;0.10;;;;;;;19.72;66.65;101719.72;5073139;28;20028;-82
2023/08/24 04:56:23;;;;;;;0.10;0.10;;;;;;;19.75;66.63;101715.16;5073941;28;20021;-82
2023/08/24 04:58:57;;;;;;;0.20;0.20;;;;;;;19.78;66.95;101717.72;5075261;28;20032;-82
2023/08/24 05:01:25;;;;;;;0.20;0.20;;;;;;;19.71;66.87;101701.88;5068712;28;20044;-80
2023/08/24 05:03:52;;;;;;;0.25;0.25;;;;;;;19.70;66.72;101699.22;5081198;28;20074;-82
2023/08/24 05:06:18;;;;;;;0.10;0.10;;;;;;;19.69;66.92;101692.13;5073377;28;20055;-82
2023/08/24 05:08:45;;;;;;;0.60;0.17;;;;;;;19.67;66.80;101694.88;5077367;28;20036;-82
2023/08/24 05:11:13;;;;;;;0.10;0.10;;;;;;;19.66;66.85;101693.13;5080444;28;20025;-82
2023/08/24 05:13:40;;;;;;;0.10;0.10;;;;;;;19.66;66.93;101690.44;5080304;28;20532;-81
2023/08/24 05:16:06;;;;;;;0.10;0.10;;;;;;;19.65;66.75;101690.50;5075988;28;20032;-82
2023/08/24 05:18:33;;;;;;;0.00;0.00;;;;;;;19.67;66.94;101684.13;5076949;28;20405;-81
2023/08/24 05:20:59;;;;;;;0.45;0.45;;;;;;;19.68;66.78;101672.44;5075837;28;20036;-82
2023/08/24 05:23:25;;;;;;;0.00;0.00;;;;;;;19.70;66.90;101657.09;5071729;28;20115;-82
2023/08/24 05:25:51;;;;;;;0.10;0.10;;;;;;;19.72;66.89;101652.50;5077228;28;20438;-82
2023/08/24 05:28:17;;;;;;;0.10;0.10;;;;;;;19.73;66.96;101653.41;5077564;28;20535;-83
2023/08/24 05:30:44;;;;;;;0.10;0.10;;;;;;;19.75;67.08;101653.31;5081598;28;20032;-80
2023/08/24 05:33:10;;;;;;;0.10;0.10;;;;;;;19.79;67.21;101654.91;5091442;28;20078;-81
2023/08/24 05:35:36;;;;;;;0.20;0.20;;;;;;;19.81;66.58;101663.81;5079383;28;20036;-81
2023/08/24 05:38:03;;;;;;;0.40;0.40;;;;;;;19.83;66.59;101664.66;5077278;28;20035;-82
2023/08/24 05:40:29;;;;;;;0.10;0.10;;;;;;;19.85;66.72;101666.31;5075668;28;20025;-82
2023/08/24 05:42:55;;;;;;;0.10;0.10;;;;;;;19.89;66.82;101677.81;5075869;28;20086;-80
2023/08/24 05:45:22;;;;;;;0.00;0.00;;;;;;;19.92;67.46;101666.03;5074520;28;20029;-80
2023/08/24 05:47:48;;;;;;;0.00;0.00;;;;;;;19.95;67.20;101661.41;5083079;28;20031;-81
2023/08/24 05:50:14;;;;;;;0.20;0.20;;;;;;;20.00;67.17;101653.09;5075953;28;20033;-81
2023/08/24 05:52:40;;;;;;;1.88;0.47;;;;;;;20.04;67.14;101646.63;5081156;28;20141;-82
2023/08/24 05:55:06;;;;;;;0.10;0.10;;;;;;;20.08;67.31;101640.16;5076928;28;20036;-83
2023/08/24 05:57:32;;;;;;;0.00;0.00;;;;;;;20.15;67.53;101643.41;5075390;28;20040;-80
2023/08/24 05:59:58;;;;;;;0.10;0.10;;;;;;;20.20;67.24;101636.03;5074604;28;20059;-82
2023/08/24 06:02:24;;;;;;;0.13;0.13;;;;;;;20.26;67.10;101633.03;5073983;28;20029;-80
2023/08/24 06:04:50;;;;;;;0.10;0.10;;;;;;;20.32;67.61;101631.84;5070476;28;20115;-80
2023/08/24 06:07:18;;;;;;;0.00;0.00;;;;;;;20.39;67.25;101627.03;5072125;28;20055;-81
2023/08/24 06:09:44;;;;;;;0.10;0.10;;;;;;;20.44;67.01;101627.72;5076077;28;20042;-82
2023/08/24 06:12:10;;;;;;;0.00;0.00;;;;;;;20.49;67.04;101628.34;5075966;28;20029;-82
2023/08/24 06:14:36;;;;;;;0.20;0.20;;;;;;;20.56;66.90;101618.13;5074932;28;20029;-82
2023/08/24 06:17:03;;;;;;;0.00;0.00;;;;;;;20.60;67.32;101609.84;5073409;28;20033;-83
2023/08/24 06:19:29;;;;;;;0.00;0.00;;;;;;;20.67;66.89;101603.19;5075466;28;20021;-81
2023/08/24 06:21:55;;;;;;;0.00;0.00;;;;;;;20.74;66.30;101600.22;5075510;28;20553;-84
2023/08/24 06:24:21;;;;;;;0.10;0.10;;;;;;;20.80;66.90;101602.63;5075515;28;20024;-83
2023/08/24 06:26:47;;;;;;;0.38;0.38;;;;;;;20.85;67.04;101595.16;5085875;28;20028;-82
2023/08/24 06:29:13;;;;;;;0.20;0.20;;;;;;;20.91;67.67;101597.53;5078102;28;20039;-84
2023/08/24 06:31:39;;;;;;;0.10;0.10;;;;;;;20.96;67.27;101595.47;5073845;28;20036;-83
2023/08/24 06:34:05;;;;;;;0.00;0.00;;;;;;;21.02;67.11;101591.56;5079110;28;20032;-83
2023/08/24 06:36:31;;;;;;;0.10;0.10;;;;;;;21.08;67.22;101587.69;5079459;28;20470;-82
2023/08/24 06:38:58;;;;;;;0.10;0.10;;;;;;;21.12;67.56;101581.19;5079649;28;20024;-83
2023/08/24 06:41:24;;;;;;;0.13;0.13;;;;;;;21.18;67.35;101572.78;5079225;28;20603;-83
2023/08/24 06:43:50;;;;;;;0.35;0.35;;;;;;;21.25;67.69;101574.22;5080349;28;20024;-84
2023/08/24 06:46:16;;;;;;;0.45;0.45;;;;;;;21.31;67.61;101579.28;5079159;28;20024;-83
2023/08/24 06:48:44;;;;;;;0.03;0.03;;;;;;;21.38;67.51;101578.94;5078473;28;20024;-80
2023/08/24 06:51:10;;;;;;;0.10;0.10;;;;;;;21.42;68.34;101593.97;5077910;28;20392;-81
2023/08/24 06:53:36;;;;;;;0.00;0.00;;;;;;;21.50;67.66;101586.38;5076459;28;20067;-80
2023/08/24 06:56:03;;;;;;;0.70;0.70;;;;;;;21.56;67.68;101577.97;5072673;28;20033;-81
2023/08/24 06:58:29;;;;;;;0.20;0.20;;;;;;;21.63;66.29;101568.59;5071798;28;20024;-82
2023/08/24 07:00:57;;;;;;;0.82;0.45;;;;;;;21.69;66.57;101558.41;5073500;28;20516;-85
2023/08/24 07:03:24;;;;;;;0.38;0.38;;;;;;;21.76;66.52;101567.91;5074774;28;20425;-83
2023/08/24 07:05:50;;;;;;;0.00;0.00;;;;;;;21.82;66.89;101567.56;5070779;28;20043;-83
2023/08/24 07:08:16;;;;;;;0.00;0.00;;;;;;;21.93;66.54;101577.75;5071644;28;20032;-82
2023/08/24 07:10:43;;;;;;;0.10;0.10;;;;;;;22.03;66.55;101581.69;5071636;28;20125;-81
2023/08/24 07:13:09;;;;;;;0.10;0.10;;;;;;;22.12;66.51;101572.19;5069653;28;20033;-84
2023/08/24 07:15:35;;;;;;;0.10;0.10;;;;;;;22.19;66.00;101580.78;5075985;28;20032;-84
2023/08/24 07:18:02;;;;;;;0.05;0.05;;;;;;;22.27;65.93;101581.25;5073583;28;20039;-82
2023/08/24 07:20:28;;;;;;;0.00;0.00;;;;;;;22.35;66.24;101586.19;5073063;28;20098;-83
2023/08/24 07:22:54;;;;;;;0.10;0.10;;;;;;;22.42;65.78;101587.59;5071871;28;20075;-84
2023/08/24 07:25:21;;;;;;;0.20;0.20;;;;;;;22.52;65.25;101575.31;5069011;28;20024;-83
2023/08/24 07:27:47;;;;;;;0.25;0.25;;;;;;;22.58;65.15;101577.63;5069563;28;20028;-84
2023/08/24 07:30:14;;;;;;;16.88;0.77;;;;;;;22.65;64.47;101571.88;5075878;28;20111;-82
2023/08/24 07:32:41;;;;;;;0.22;0.22;;;;;;;22.74;64.31;101568.59;5074549;28;20062;-82
2023/08/24 07:35:07;;;;;;;0.10;0.10;;;;;;;22.82;64.08;101574.44;5078288;28;20599;-84
2023/08/24 07:37:33;;;;;;;0.08;0.08;;;;;;;22.93;64.06;101571.94;5085106;28;20028;-84
2023/08/24 07:39:59;;;;;;;0.00;0.00;;;;;;;23.09;63.82;101565.59;5083764;28;20048;-84
2023/08/24 07:42:26;;;;;;;0.10;0.10;;;;;;;23.25;63.70;101569.13;5078715;28;20028;-84
2023/08/24 07:44:52;;;;;;;0.95;0.90;;;;;;;23.47;63.60;101572.34;5083091;28;20028;-84
2023/08/24 07:47:18;;;;;;;0.13;0.13;;;;;;;23.69;63.28;101570.00;5080343;28;20029;-82
2023/08/24 07:49:44;;;;;;;0.25;0.25;;;;;;;23.92;62.85;101559.53;5085228;28;20134;-82
2023/08/24 07:52:12;;;;;;;0.13;0.13;;;;;;;24.13;62.61;101554.56;5081166;28;20016;-82
2023/08/24 07:54:39;;;;;;;0.47;0.47;;;;;;;24.25;61.64;101552.00;5077160;28;20379;-83
2023/08/24 07:57:06;;;;;;;0.65;0.65;;;;;;;24.38;61.39;101553.78;5091860;28;20024;-80
2023/08/24 07:59:32;;;;;;;0.00;0.00;;;;;;;24.46;60.60;101552.41;5087528;28;20032;-82
2023/08/24 08:01:58;;;;;;;0.10;0.10;;;;;;;24.60;60.58;101546.91;5081506;28;20791;-80
2023/08/24 08:04:24;;;;;;;0.57;0.55;;;;;;;24.75;61.11;101541.44;5076081;28;20028;-78
2023/08/24 08:06:50;;;;;;;0.13;0.13;;;;;;;24.86;60.09;101544.25;5067254;28;20028;-83
2023/08/24 08:09:16;;;;;;;0.20;0.20;;;;;;;24.94;59.53;101536.47;5077917;28;20025;-81
2023/08/24 08:11:42;;;;;;;0.20;0.20;;;;;;;25.09;59.81;101539.94;5083510;28;20036;-81
2023/08/24 08:14:09;;;;;;;0.10;0.10;;;;;;;25.19;59.19;101534.75;5078790;28;20028;-81
2023/08/24 08:16:36;;;;;;;0.20;0.20;;;;;;;25.28;58.88;101530.50;5077613;28;20657;-84
2023/08/24 08:19:02;;;;;;;0.45;0.45;;;;;;;25.34;59.32;101538.19;5080473;28;20493;-83
2023/08/24 08:21:29;;;;;;;0.10;0.10;;;;;;;25.42;59.54;101538.56;5083215;28;20040;-82
2023/08/24 08:23:55;;;;;;;0.28;0.28;;;;;;;25.46;58.61;101539.19;5084207;28;20043;-83
2023/08/24 08:26:21;;;;;;;0.10;0.10;;;;;;;25.54;58.69;101535.94;5069454;28;20481;-84
2023/08/24 08:28:47;;;;;;;0.10;0.10;;;;;;;25.55;57.10;101529.53;5077994;28;20024;-85
2023/08/24 08:31:13;;;;;;;1.77;1.63;;;;;;;25.66;58.04;101516.06;5073181;28;20421;-85
2023/08/24 08:33:40;;;;;;;0.40;0.40;;;;;;;25.72;58.07;101507.47;5065446;28;20563;-84
2023/08/24 08:36:06;;;;;;;0.30;0.28;;;;;;;25.78;57.90;101507.00;5071299;28;20048;-85
2023/08/24 08:38:32;;;;;;;0.30;0.30;;;;;;;25.86;58.05;101497.41;5075389;28;20109;-82
2023/08/24 08:41:04;;;;;;;0.35;0.35;;;;;;;25.95;57.52;101488.59;5083487;28;20024;-83
2023/08/24 08:43:30;;;;;;;0.40;0.40;;;;;;;25.99;57.37;101473.78;5074483;28;20036;-83
2023/08/24 08:45:58;;;;;;;0.10;0.10;;;;;;;26.04;57.12;101466.16;5079434;28;20103;-84
2023/08/24 08:48:25;;;;;;;0.13;0.13;;;;;;;26.11;57.50;101462.03;5080496;28;20505;-83
2023/08/24 08:50:55;;;;;;;0.08;0.08;;;;;;;26.16;56.88;101450.81;5078552;28;20036;-81
2023/08/24 08:53:23;;;;;;;0.20;0.20;;;;;;;26.19;56.89;101455.16;5079408;28;20263;-82
2023/08/24 08:55:53;;;;;;;0.80;0.28;;;;;;;26.17;55.95;101449.84;5065219;28;20032;-83
2023/08/24 08:58:20;;;;;;;0.10;0.10;;;;;;;26.14;56.03;101445.50;5071689;28;20025;-83
2023/08/24 09:00:48;;;;;;;0.40;0.40;;;;;;;26.22;56.94;101447.63;5075589;28;20028;-83
2023/08/24 09:03:17;;;;;;;0.25;0.25;;;;;;;26.30;56.26;101452.47;5074336;28;20025;-83
2023/08/24 09:05:46;;;;;;;0.20;0.20;;;;;;;26.41;56.52;101449.78;5070683;28;20390;-81
2023/08/24 09:08:13;;;;;;;0.25;0.25;;;;;;;26.45;56.08;101448.53;5074455;28;20033;-84
2023/08/24 09:10:39;;;;;;;0.10;0.10;;;;;;;26.68;56.72;101443.19;5081980;28;20066;-85
2023/08/24 09:13:06;;;;;;;0.10;0.10;;;;;;;26.79;56.24;101445.06;5077354;28;20039;-84
2023/08/24 09:15:36;;;;;;;1.45;1.27;;;;;;;26.90;55.94;101441.50;5078521;28;20111;-84
2023/08/24 09:18:03;;;;;;;0.55;0.55;;;;;;;26.99;55.60;101435.28;5076467;28;20028;-85
2023/08/24 09:20:29;;;;;;;0.00;0.00;;;;;;;27.05;54.83;101445.69;5076080;28;20092;-85
2023/08/24 09:22:57;;;;;;;0.28;0.28;;;;;;;27.10;54.50;101454.34;5076498;28;20032;-84
2023/08/24 09:25:23;;;;;;;0.10;0.10;;;;;;;27.18;54.89;101461.00;5078112;28;20054;-84
2023/08/24 09:28:05;;;;;;;0.10;0.10;;;;;;;27.28;54.73;101467.47;5077460;28;20386;-86
2023/08/24 09:30:32;;;;;;;0.10;0.10;;;;;;;27.21;54.35;101466.22;5066900;28;20501;-84
2023/08/24 09:33:12;;;;;;;0.00;0.00;;;;;;;27.28;54.71;101462.88;5069633;28;20262;-83
2023/08/24 09:35:38;;;;;;;5.57;0.85;;;;;;;27.23;55.25;101464.25;5070733;28;20511;-84
2023/08/24 09:38:23;;;;;;;0.10;0.10;;;;;;;27.30;55.23;101462.72;5081465;28;20043;-85
2023/08/24 09:40:52;;;;;;;0.00;0.00;;;;;;;27.23;55.33;101461.53;5067495;28;20035;-84
2023/08/24 09:43:18;;;;;;;0.00;0.00;;;;;;;27.13;54.84;101459.53;5088412;28;20037;-84
2023/08/24 09:45:52;;;;;;;0.10;0.10;;;;;;;27.13;55.13;101454.09;5095536;28;20055;-84
2023/08/24 09:48:19;;;;;;;0.08;0.08;;;;;;;27.01;55.35;101460.53;5087922;28;20024;-85
2023/08/24 09:50:47;;;;;;;0.10;0.10;;;;;;;26.92;55.62;101461.28;5087544;28;20013;-85
2023/08/24 09:53:18;;;;;;;0.08;0.08;;;;;;;26.82;56.21;101461.13;5085141;28;20035;-85
2023/08/24 09:56:07;;;;;;;0.10;0.10;;;;;;;26.70;56.39;101471.09;5080632;28;20410;-85
2023/08/24 09:58:34;;;;;;;0.38;0.38;;;;;;;26.56;56.87;101479.47;5092509;28;20029;-85
2023/08/24 10:01:01;;;;;;;0.20;0.20;;;;;;;26.46;56.74;101490.19;5084124;28;20016;-85
2023/08/24 10:03:30;;;;;;;4.38;0.43;;;;;;;26.38;57.17;101500.75;5080565;28;20029;-85
2023/08/24 10:05:59;;;;;;;0.30;0.30;;;;;;;26.29;57.29;101496.91;5074915;28;20080;-85
2023/08/24 10:08:29;;;;;;;0.35;0.35;;;;;;;26.20;57.54;101508.50;5077403;28;20032;-84
2023/08/24 10:11:03;;;;;;;0.10;0.10;;;;;;;26.14;57.77;101510.69;5077746;28;20032;-83
2023/08/24 10:13:43;;;;;;;0.85;0.60;;;;;;;26.04;57.93;101498.72;5080482;28;20095;-85
2023/08/24 10:16:12;;;;;;;0.08;0.08;;;;;;;25.95;57.98;101488.59;5080575;28;20773;-85
2023/08/24 10:18:40;;;;;;;0.00;0.00;;;;;;;25.88;58.19;101487.31;5086138;28;20091;-84
2023/08/24 10:21:07;;;;;;;0.63;0.63;;;;;;;25.79;58.04;101488.84;5087969;28;20036;-86
2023/08/24 10:23:35;;;;;;;0.55;0.47;;;;;;;25.75;58.21;101480.06;5075703;28;20032;-85
2023/08/24 10:26:03;;;;;;;0.10;0.10;;;;;;;25.72;58.33;101472.19;5073531;28;20024;-85
2023/08/24 10:28:30;;;;;;;0.43;0.43;;;;;;;25.72;58.50;101464.03;5070356;28;20028;-86
2023/08/24 10:30:59;;;;;;;0.00;0.00;;;;;;;25.76;59.10;101448.38;5075037;28;20024;-84
2023/08/24 10:33:27;;;;;;;0.32;0.32;;;;;;;25.76;59.78;101438.38;5066954;28;20105;-86
2023/08/24 10:35:53;;;;;;;0.30;0.30;;;;;;;25.83;60.16;101441.50;5063268;28;20036;-84
2023/08/24 10:38:29;;;;;;;0.15;0.15;;;;;;;25.94;61.22;101438.81;5073955;28;20123;-84
2023/08/24 10:41:04;;;;;;;0.10;0.10;;;;;;;25.92;61.27;101434.50;5073606;28;20040;-84
2023/08/24 10:43:34;;;;;;;1.10;0.50;;;;;;;25.96;59.74;101436.03;5071390;28;20035;-84
2023/08/24 10:46:03;;;;;;;0.05;0.05;;;;;;;26.02;60.51;101430.13;5076534;28;20025;-84
2023/08/24 10:48:50;;;;;;;0.30;0.30;;;;;;;26.10;61.09;101427.69;5076131;28;20046;-84
2023/08/24 10:51:20;;;;;;;0.22;0.22;;;;;;;26.23;60.87;101422.22;5076770;28;20044;-84
2023/08/24 10:53:51;;;;;;;0.25;0.25;;;;;;;26.35;60.91;101414.94;5076602;28;20470;-85
2023/08/24 10:56:18;;;;;;;0.00;0.00;;;;;;;26.48;60.08;101409.41;5075430;28;20033;-84
2023/08/24 10:58:46;;;;;;;0.08;0.08;;;;;;;26.59;60.56;101411.28;5076539;28;20040;-84
2023/08/24 11:01:17;;;;;;;0.65;0.65;;;;;;;26.67;59.04;101406.09;5074752;28;20115;-84
2023/08/24 11:03:50;;;;;;;0.47;0.47;;;;;;;26.74;59.06;101404.66;5075134;28;20029;-84
2023/08/24 11:06:24;;;;;;;0.00;0.00;;;;;;;26.80;59.16;101397.84;5073818;28;20017;-84
2023/08/24 11:09:17;;;;;;;0.08;0.08;;;;;;;26.89;58.95;101397.13;5075660;28;20021;-84
2023/08/24 11:11:55;;;;;;;0.25;0.25;;;;;;;26.86;58.89;101402.81;5069606;28;20028;-83
2023/08/24 11:14:22;;;;;;;0.10;0.10;;;;;;;26.89;58.40;101401.69;5075307;28;20025;-84
2023/08/24 11:16:49;;;;;;;0.10;0.10;;;;;;;26.89;58.42;101398.97;5064049;28;20025;-83
2023/08/24 11:19:15;;;;;;;0.85;0.85;;;;;;;26.90;58.62;101395.28;5068803;28;20481;-85
2023/08/24 11:21:44;;;;;;;0.75;0.75;;;;;;;26.94;58.08;101389.47;5068693;28;20029;-87
2023/08/24 11:24:13;;;;;;;0.20;0.20;;;;;;;27.02;57.98;101397.00;5072999;28;20017;-83
2023/08/24 11:26:44;;;;;;;0.00;0.00;;;;;;;27.09;58.15;101397.34;5069381;28;20108;-84
2023/08/24 11:29:10;;;;;;;0.20;0.20;;;;;;;27.16;57.81;101397.72;5070376;28;20488;-85
2023/08/24 11:31:38;;;;;;;0.30;0.30;;;;;;;27.23;57.53;101409.84;5067551;28;20033;-83